Time;durP1;ratioP1;P1;durP2;ratioP2;P2;SDS_P1;SDS_P2;PMS_P1;PMS_P2;Temp;Humidity;BMP_temperature;BMP_pressure;BME280_temperature;BME280_humidity;BME280_pressure;Samples;Min_cycle;Max_cycle;Signal;HPM_P1;HPM_P2
2022/08/23 00:01:59;;;;;;;2.37;1.72;;;;;;;17.35;99.24;98193.05;1689677;84;29109;-69
2022/08/23 00:04:36;;;;;;;2.70;1.70;;;;;;;17.40;99.17;98199.67;1675368;85;25483;-68
2022/08/23 00:07:06;;;;;;;1.95;1.50;;;;;;;17.49;99.61;98198.03;1689714;84;25489;-67
2022/08/23 00:09:32;;;;;;;2.47;1.90;;;;;;;17.53;98.74;98198.30;1675401;85;25734;-67
2022/08/23 00:12:15;;;;;;;2.27;1.70;;;;;;;17.48;98.40;98198.63;1689846;84;25623;-67
2022/08/23 00:14:47;;;;;;;1.98;1.65;;;;;;;17.43;98.24;98190.05;1615634;88;28404;-66
2022/08/23 00:17:14;;;;;;;4.12;1.67;;;;;;;17.46;98.64;98194.62;1616642;88;25729;-67
2022/08/23 00:19:42;;;;;;;2.75;1.50;;;;;;;17.50;98.91;98197.66;1616220;88;25908;-66
2022/08/23 00:22:09;;;;;;;3.42;1.82;;;;;;;17.52;98.49;98199.48;1616200;88;26094;-68
2022/08/23 00:24:38;;;;;;;4.28;1.90;;;;;;;17.58;98.59;98192.25;1616264;88;25719;-67
2022/08/23 00:27:14;;;;;;;2.60;1.82;;;;;;;17.56;98.04;98196.17;1616171;88;28474;-67
2022/08/23 00:29:51;;;;;;;3.35;2.10;;;;;;;17.54;97.91;98197.72;1616360;88;25592;-67
2022/08/23 00:32:25;;;;;;;2.47;2.05;;;;;;;17.52;97.66;98199.48;1616336;88;25750;-68
2022/08/23 00:34:52;;;;;;;3.65;2.00;;;;;;;17.45;97.30;98191.06;1606936;88;25773;-67
2022/08/23 00:37:19;;;;;;;3.15;1.95;;;;;;;17.38;97.60;98193.70;1606601;89;25822;-65
2022/08/23 00:39:46;;;;;;;3.98;2.52;;;;;;;17.33;97.36;98193.45;1606728;89;28240;-67
2022/08/23 00:47:57;;;;;;;4.55;2.60;;;;;;;17.33;98.25;98192.64;1606459;89;25771;-67
2022/08/23 00:50:38;;;;;;;2.83;2.42;;;;;;;17.36;98.44;98203.77;1606433;89;25690;-67
2022/08/23 00:53:15;;;;;;;2.98;2.45;;;;;;;17.35;97.78;98210.48;1670391;85;28222;-67
2022/08/23 00:55:46;;;;;;;3.60;2.85;;;;;;;17.31;97.84;98212.40;1684589;85;25711;-67
2022/08/23 00:58:15;;;;;;;5.12;2.75;;;;;;;17.33;97.58;98212.03;1670421;85;25574;-67
2022/08/23 01:00:42;;;;;;;5.08;3.08;;;;;;;17.27;97.44;98218.47;1684409;85;25771;-67
2022/08/23 01:03:11;;;;;;;3.33;3.00;;;;;;;17.29;97.88;98213.34;1670170;85;25493;-67
2022/08/23 01:05:48;;;;;;;5.05;3.08;;;;;;;17.28;97.48;98210.37;1684412;85;27448;-67
2022/08/23 01:08:14;;;;;;;3.67;3.02;;;;;;;17.25;97.35;98218.84;1657510;85;25725;-68
2022/08/23 01:10:49;;;;;;;4.55;3.00;;;;;;;17.23;97.46;98220.36;1684447;85;25625;-67
2022/08/23 01:13:20;;;;;;;3.67;3.02;;;;;;;17.21;97.42;98222.72;1670003;85;25771;-68
2022/08/23 01:16:00;;;;;;;4.17;3.42;;;;;;;17.17;97.13;98223.45;1684633;85;25660;-68
2022/08/23 01:18:29;;;;;;;6.83;3.50;;;;;;;17.14;97.34;98219.23;1670083;85;27398;-68
2022/08/23 01:21:18;;;;;;;3.83;3.40;;;;;;;17.09;96.87;98218.14;1684703;85;25508;-68
2022/08/23 01:23:54;;;;;;;4.35;3.45;;;;;;;17.08;97.78;98221.52;1669974;85;25889;-68
2022/08/23 01:26:22;;;;;;;4.47;3.60;;;;;;;17.07;97.38;98214.36;1646285;85;25737;-68
2022/08/23 01:28:50;;;;;;;4.80;3.50;;;;;;;17.14;97.99;98213.12;1684499;84;25687;-68
2022/08/23 01:31:17;;;;;;;6.10;3.80;;;;;;;17.21;98.16;98219.34;1684241;85;27435;-68
2022/08/23 01:33:49;;;;;;;4.97;3.60;;;;;;;17.26;98.01;98226.55;1685659;83;27244;-68
2022/08/23 01:36:16;;;;;;;5.87;3.58;;;;;;;17.28;98.08;98229.18;1689784;84;25515;-68
2022/08/23 01:38:42;;;;;;;4.20;3.25;;;;;;;17.37;97.92;98233.66;1664569;84;25765;-68
2022/08/23 01:41:09;;;;;;;4.92;3.30;;;;;;;17.39;97.71;98225.18;1689424;84;25466;-68
2022/08/23 01:43:35;;;;;;;4.15;2.77;;;;;;;17.42;97.85;98229.98;1689581;84;27442;-68
2022/08/23 01:46:13;;;;;;;6.75;3.37;;;;;;;17.41;97.59;98228.39;1689476;84;25726;-68
2022/08/23 01:48:40;;;;;;;5.80;3.45;;;;;;;17.37;97.51;98232.27;1689831;84;25484;-68
2022/08/23 01:51:07;;;;;;;5.70;3.33;;;;;;;17.38;97.80;98228.32;1689659;84;26495;-67
2022/08/23 01:53:33;;;;;;;5.92;3.85;;;;;;;17.41;98.07;98228.39;1689886;84;25634;-67
2022/08/23 01:56:02;;;;;;;4.67;3.62;;;;;;;17.50;98.37;98225.96;1689729;84;27429;-68
2022/08/23 01:58:32;;;;;;;5.33;3.75;;;;;;;17.54;98.13;98223.47;1689303;84;25456;-67
2022/08/23 02:01:00;;;;;;;4.97;3.87;;;;;;;17.59;97.98;98225.70;1689666;84;25452;-67
2022/08/23 02:03:28;;;;;;;4.87;3.47;;;;;;;17.60;98.23;98225.33;1689377;84;25925;-67
2022/08/23 02:05:56;;;;;;;4.35;3.50;;;;;;;17.61;97.55;98224.14;1689562;84;25408;-66
2022/08/23 02:11:12;;;;;;;5.28;4.33;;;;;;;17.68;97.91;98224.25;1689321;84;25781;-66
2022/08/23 02:13:38;;;;;;;5.70;3.87;;;;;;;17.75;97.93;98235.23;1688981;84;25631;-66
2022/08/23 02:16:05;;;;;;;6.53;3.98;;;;;;;17.77;97.77;98237.05;1689670;84;26586;-66
2022/08/23 02:18:32;;;;;;;6.25;3.80;;;;;;;17.80;98.04;98235.73;1689400;84;25472;-67
2022/08/23 02:20:59;;;;;;;5.28;3.72;;;;;;;17.88;97.83;98239.98;1675201;85;28262;-67
2022/08/23 02:23:26;;;;;;;6.20;3.90;;;;;;;17.84;96.58;98241.91;1689482;84;25967;-67
2022/08/23 02:25:53;;;;;;;4.55;3.60;;;;;;;17.71;96.80;98231.03;1675050;85;25497;-67
2022/08/23 02:28:21;;;;;;;6.97;3.55;;;;;;;17.77;98.08;98237.05;1689623;84;25718;-66
2022/08/23 02:30:48;;;;;;;6.15;4.10;;;;;;;17.85;97.62;98237.96;1675100;85;25689;-66
2022/08/23 02:33:15;;;;;;;5.67;3.77;;;;;;;17.87;97.31;98233.63;1689589;84;27553;-66
2022/08/23 02:35:41;;;;;;;5.55;3.95;;;;;;;17.81;96.36;98237.32;1672604;84;25524;-66
2022/08/23 02:38:12;;;;;;;5.72;4.25;;;;;;;17.75;96.83;98233.84;1696897;84;25680;-66
2022/08/23 02:40:40;;;;;;;5.62;4.33;;;;;;;17.73;96.37;98237.59;1697231;84;25855;-67
2022/08/23 02:43:07;;;;;;;6.33;4.17;;;;;;;17.63;96.68;98238.44;1697225;84;25516;-67
2022/08/23 02:45:33;;;;;;;6.45;4.53;;;;;;;17.65;96.59;98240.84;1696999;84;27500;-66
2022/08/23 02:48:00;;;;;;;5.78;4.15;;;;;;;17.64;96.92;98237.25;1696986;84;25459;-67
2022/08/23 02:50:26;;;;;;;5.33;4.25;;;;;;;17.70;97.16;98243.88;1697153;84;25618;-67
2022/08/23 02:52:54;;;;;;;6.12;4.72;;;;;;;17.73;96.89;98246.69;1696797;84;25740;-66
2022/08/23 02:55:21;;;;;;;5.30;4.22;;;;;;;17.77;96.96;98244.79;1697104;84;25712;-65
2022/08/23 02:57:47;;;;;;;6.37;4.62;;;;;;;17.81;96.70;98247.59;1697297;84;28135;-66
2022/08/23 03:00:16;;;;;;;7.75;4.53;;;;;;;17.83;96.74;98252.19;1697010;84;25984;-66
2022/08/23 03:02:43;;;;;;;7.65;4.45;;;;;;;17.84;96.31;98260.71;1697197;84;25506;-64
2022/08/23 03:05:11;;;;;;;7.97;5.25;;;;;;;17.87;96.62;98259.16;1697074;84;25752;-66
2022/08/23 03:07:37;;;;;;;7.00;4.67;;;;;;;17.86;95.99;98261.14;1697120;84;25637;-66
2022/08/23 03:10:07;;;;;;;6.67;4.70;;;;;;;17.87;96.36;98263.31;1697130;84;27421;-66
2022/08/23 03:12:33;;;;;;;7.30;4.72;;;;;;;17.89;96.10;98263.75;1697112;84;25455;-66
2022/08/23 03:15:11;;;;;;;6.08;4.25;;;;;;;17.88;96.02;98264.33;1696815;84;25569;-66
2022/08/23 03:17:41;;;;;;;6.87;4.80;;;;;;;17.87;95.99;98264.70;1672475;85;25511;-66
2022/08/23 03:20:14;;;;;;;9.23;5.70;;;;;;;17.86;96.11;98267.27;1697259;84;25677;-65
2022/08/23 03:22:41;;;;;;;15.25;6.65;;;;;;;17.88;96.36;98260.17;1696780;84;27410;-65
2022/08/23 03:25:08;;;;;;;12.43;7.10;;;;;;;17.88;95.98;98263.55;1697094;84;25715;-65
2022/08/23 03:27:36;;;;;;;12.23;6.65;;;;;;;17.81;95.67;98265.61;1696889;84;25668;-65
2022/08/23 03:30:05;;;;;;;14.45;7.58;;;;;;;17.79;96.14;98268.75;1696889;84;25910;-65
2022/08/23 03:32:31;;;;;;;15.98;8.60;;;;;;;17.78;96.08;98266.36;1697212;84;25507;-65
2022/08/23 03:34:57;;;;;;;14.47;7.83;;;;;;;17.77;96.31;98264.19;1696891;83;28328;-65
2022/08/23 03:37:24;;;;;;;15.53;7.75;;;;;;;17.79;96.35;98267.37;1696781;84;25769;-65
2022/08/23 03:39:51;;;;;;;15.30;7.90;;;;;;;17.81;96.39;98265.61;1693445;84;26647;-65
2022/08/23 03:42:18;;;;;;;16.62;8.38;;;;;;;17.77;96.19;98275.84;1697112;84;26496;-65
2022/08/23 03:44:45;;;;;;;18.77;8.98;;;;;;;17.73;96.19;98275.78;1696839;84;25424;-65
2022/08/23 03:47:11;;;;;;;17.77;8.95;;;;;;;17.71;96.06;98274.56;1696587;84;27767;-65
2022/08/23 03:49:38;;;;;;;20.48;9.18;;;;;;;17.65;96.30;98269.32;1696928;84;25433;-65
2022/08/23 03:52:05;;;;;;;19.17;8.43;;;;;;;17.61;96.42;98276.78;1696855;84;25654;-64
2022/08/23 03:54:33;;;;;;;20.50;8.73;;;;;;;17.61;96.74;98274.59;1697133;84;25544;-65
2022/08/23 03:57:04;;;;;;;17.73;8.23;;;;;;;17.61;96.77;98275.41;1697099;84;25693;-65
2022/08/23 03:59:33;;;;;;;21.68;8.75;;;;;;;17.61;96.79;98271.82;1696831;84;29655;-65
2022/08/23 04:02:00;;;;;;;21.60;8.98;;;;;;;17.62;96.97;98275.61;1697206;84;25543;-65
2022/08/23 04:04:27;;;;;;;20.88;9.00;;;;;;;17.62;96.89;98275.61;1696800;84;25485;-65
2022/08/23 04:06:53;;;;;;;22.13;9.30;;;;;;;17.64;97.06;98276.63;1696965;84;25795;-65
2022/08/23 04:09:19;;;;;;;20.82;8.85;;;;;;;17.65;97.02;98279.02;1697172;84;25583;-65
2022/08/23 04:11:45;;;;;;;19.57;9.13;;;;;;;17.71;97.42;98282.30;1697304;84;28111;-64
2022/08/23 04:14:12;;;;;;;18.62;9.08;;;;;;;17.79;97.79;98280.45;1697085;84;25821;-64
2022/08/23 04:16:39;;;;;;;17.25;8.65;;;;;;;17.81;97.35;98284.44;1696985;84;25500;-64
2022/08/23 04:19:14;;;;;;;17.20;9.33;;;;;;;17.88;97.56;98280.17;1696890;84;25794;-64
2022/08/23 04:21:47;;;;;;;20.62;8.83;;;;;;;17.92;97.61;98274.09;1696953;84;25669;-64
2022/08/23 04:24:14;;;;;;;20.60;9.48;;;;;;;17.97;97.37;98277.94;1697036;84;27503;-64
2022/08/23 04:26:41;;;;;;;22.35;9.48;;;;;;;17.97;97.07;98275.17;1696848;84;27300;-64
2022/08/23 04:29:07;;;;;;;36.00;17.10;;;;;;;17.94;97.22;98278.69;1697176;84;25639;-62
2022/08/23 04:31:34;;;;;;;37.05;18.65;;;;;;;17.98;97.42;98272.61;1696890;84;25783;-64
2022/08/23 04:34:01;;;;;;;32.17;14.75;;;;;;;17.93;96.99;98276.49;1693334;83;25699;-64
2022/08/23 04:36:33;;;;;;;22.35;11.33;;;;;;;17.94;97.42;98275.92;1697164;84;27480;-64
2022/08/23 04:38:59;;;;;;;20.43;10.18;;;;;;;18.01;97.73;98276.59;1696726;84;25452;-64
2022/08/23 04:44:09;;;;;;;17.98;9.25;;;;;;;18.04;97.19;98280.81;1696938;84;25677;-64
2022/08/23 04:46:35;;;;;;;17.50;9.38;;;;;;;18.04;97.34;98280.00;1672997;85;25209;-64
2022/08/23 04:49:01;;;;;;;17.77;8.80;;;;;;;18.00;97.17;98281.94;1644184;87;27771;-64
2022/08/23 04:51:28;;;;;;;13.93;8.10;;;;;;;18.03;97.73;98289.50;1696951;84;25694;-64
2022/08/23 04:53:54;;;;;;;14.95;8.53;;;;;;;18.04;97.53;98294.67;1697193;84;25617;-64
2022/08/23 04:56:22;;;;;;;14.35;8.40;;;;;;;18.04;97.26;98296.06;1697125;84;25779;-63
2022/08/23 04:58:49;;;;;;;13.70;8.20;;;;;;;18.05;97.52;98300.42;1697110;84;25439;-63
2022/08/23 05:01:15;;;;;;;13.00;7.60;;;;;;;18.10;97.90;98304.85;1696900;84;27619;-64
2022/08/23 05:03:42;;;;;;;11.65;7.60;;;;;;;18.18;97.62;98304.41;1696903;84;25483;-62
2022/08/23 05:06:08;;;;;;;13.88;7.92;;;;;;;18.17;97.45;98312.52;1697230;84;25613;-63
2022/08/23 05:08:35;;;;;;;12.60;8.03;;;;;;;18.15;97.77;98311.50;1697187;84;25776;-64
2022/08/23 05:11:04;;;;;;;12.98;8.00;;;;;;;18.22;98.01;98323.27;1697216;84;25708;-63
2022/08/23 05:13:33;;;;;;;13.90;8.40;;;;;;;18.29;97.96;98323.98;1697551;84;27378;-64
2022/08/23 05:16:00;;;;;;;13.85;7.92;;;;;;;18.37;97.99;98320.14;1697069;84;25449;-63
2022/08/23 05:18:26;;;;;;;11.65;7.60;;;;;;;18.47;98.12;98320.06;1697176;84;25586;-63
2022/08/23 05:20:53;;;;;;;14.98;8.35;;;;;;;18.49;97.11;98316.34;1673451;85;25696;-63
2022/08/23 05:23:19;;;;;;;13.28;7.78;;;;;;;18.46;97.05;98318.47;1697137;84;25634;-63
2022/08/23 05:25:48;;;;;;;14.45;8.43;;;;;;;18.46;97.46;98314.31;1672273;85;27545;-63
2022/08/23 05:28:28;;;;;;;13.20;8.30;;;;;;;18.48;97.76;98313.94;1697009;84;25771;-62
2022/08/23 05:31:05;;;;;;;15.78;8.65;;;;;;;18.55;97.72;98314.02;1697115;84;25531;-61
2022/08/23 05:33:34;;;;;;;14.87;8.43;;;;;;;18.60;97.61;98319.83;1693170;84;25702;-62
2022/08/23 05:36:03;;;;;;;15.68;9.08;;;;;;;18.62;97.45;98317.49;1691641;83;25429;-61
2022/08/23 05:38:30;;;;;;;15.78;8.98;;;;;;;18.63;97.52;98321.28;1689688;84;27697;-61
2022/08/23 05:40:58;;;;;;;17.57;9.30;;;;;;;18.67;97.79;98320.73;1689791;84;25629;-62
2022/08/23 05:43:25;;;;;;;15.78;9.48;;;;;;;18.76;97.69;98325.98;1689632;84;25444;-61
2022/08/23 05:46:11;;;;;;;15.58;9.73;;;;;;;18.76;97.41;98326.56;1689605;84;25840;-61
2022/08/23 05:48:44;;;;;;;15.48;9.88;;;;;;;18.75;96.97;98331.33;1689646;84;25650;-61
2022/08/23 05:51:18;;;;;;;14.73;9.85;;;;;;;18.76;97.09;98330.15;1689453;84;26722;-61
2022/08/23 05:53:46;;;;;;;16.05;10.28;;;;;;;18.79;97.12;98333.56;1670663;84;25739;-61
2022/08/23 05:56:23;;;;;;;16.07;10.30;;;;;;;18.80;97.17;98333.76;1668723;85;25741;-61
2022/08/23 05:58:52;;;;;;;15.90;9.63;;;;;;;18.85;97.41;98343.73;1669226;85;25806;-61
2022/08/23 06:01:20;;;;;;;18.30;10.18;;;;;;;18.90;97.24;98341.21;1669222;85;25693;-61
2022/08/23 06:03:48;;;;;;;16.77;10.43;;;;;;;18.88;97.43;98342.98;1645810;85;27473;-61
2022/08/23 06:06:17;;;;;;;18.65;10.75;;;;;;;18.96;97.32;98344.44;1664540;86;25754;-61
2022/08/23 06:08:46;;;;;;;18.15;11.33;;;;;;;19.03;97.66;98343.16;1664669;86;25785;-61
2022/08/23 06:11:20;;;;;;;20.17;11.38;;;;;;;19.06;97.00;98337.63;1664790;86;25792;-60
2022/08/23 06:13:57;;;;;;;19.75;11.63;;;;;;;19.07;97.20;98338.44;1664741;86;25763;-61
2022/08/23 06:16:31;;;;;;;17.65;10.05;;;;;;;19.12;97.59;98343.70;1664885;86;27610;-60
2022/08/23 06:19:01;;;;;;;16.20;9.95;;;;;;;19.22;97.14;98345.56;1660745;86;25763;-60
2022/08/23 06:21:29;;;;;;;16.70;9.75;;;;;;;19.24;96.94;98344.60;1641481;87;25674;-60
2022/08/23 06:23:56;;;;;;;12.98;9.05;;;;;;;19.29;96.93;98347.83;1640762;87;25920;-60
2022/08/23 06:26:33;;;;;;;14.28;9.15;;;;;;;19.35;97.48;98348.89;1640209;87;25651;-60
2022/08/23 06:29:04;;;;;;;13.78;8.93;;;;;;;19.39;97.40;98352.48;1649204;86;27608;-60
2022/08/23 06:31:47;;;;;;;12.70;8.85;;;;;;;19.46;96.98;98351.20;1646394;86;25753;-60
2022/08/23 06:34:24;;;;;;;13.28;8.80;;;;;;;19.48;96.08;98352.17;1649674;86;25727;-60
2022/08/23 06:36:56;;;;;;;13.20;9.00;;;;;;;19.42;96.24;98351.15;1643361;85;25692;-60
2022/08/23 06:39:26;;;;;;;14.98;9.08;;;;;;;19.49;96.62;98351.80;1646039;86;25685;-60
2022/08/23 06:42:00;;;;;;;13.53;8.78;;;;;;;19.46;95.39;98355.36;1648726;86;26811;-60
2022/08/23 06:44:28;;;;;;;13.72;8.60;;;;;;;19.46;95.68;98349.81;1646146;86;25792;-60
2022/08/23 06:46:56;;;;;;;12.50;8.95;;;;;;;19.52;96.44;98353.81;1642415;86;26572;-60
2022/08/23 06:49:23;;;;;;;12.55;8.48;;;;;;;19.50;95.64;98353.99;1649362;86;25771;-60
2022/08/23 06:51:54;;;;;;;12.28;9.00;;;;;;;19.53;95.00;98355.43;1648147;86;25785;-60
2022/08/23 06:54:25;;;;;;;14.43;8.48;;;;;;;19.50;95.48;98358.16;1642273;86;27399;-60
2022/08/23 06:56:52;;;;;;;12.63;8.78;;;;;;;19.52;95.61;98359.37;1645123;86;25806;-60
2022/08/23 06:59:20;;;;;;;14.10;9.63;;;;;;;19.52;95.48;98357.98;1642595;86;25851;-60
2022/08/23 07:01:54;;;;;;;17.67;10.15;;;;;;;19.54;95.17;98354.23;1647698;86;25755;-60
2022/08/23 07:04:31;;;;;;;13.48;8.73;;;;;;;19.57;95.57;98361.00;1645076;86;25747;-60
2022/08/23 07:07:00;;;;;;;15.58;9.90;;;;;;;19.52;94.74;98361.37;1646676;86;27631;-60
2022/08/23 07:09:28;;;;;;;23.30;11.95;;;;;;;19.46;94.71;98375.40;1652092;86;25757;-60
2022/08/23 07:11:55;;;;;;;15.95;9.55;;;;;;;19.52;95.51;98372.48;1643543;86;25701;-60
2022/08/23 07:14:23;;;;;;;12.73;8.95;;;;;;;19.62;95.77;98373.76;1644614;86;25750;-60
2022/08/23 07:16:55;;;;;;;13.38;9.35;;;;;;;19.70;95.65;98382.38;1654568;86;25980;-60
2022/08/23 07:19:26;;;;;;;14.38;8.68;;;;;;;19.81;95.72;98386.66;1647429;86;27512;-60
2022/08/23 07:21:53;;;;;;;;;;;;;;;19.85;95.05;98389.45;1645957;86;25598;-60
2022/08/23 07:24:21;;;;;;;13.38;9.15;;;;;;;19.89;95.60;98382.74;1640801;87;25614;-60
2022/08/23 07:26:50;;;;;;;12.43;9.23;;;;;;;19.94;95.68;98384.38;1643174;86;25755;-60
2022/08/23 07:29:19;;;;;;;13.93;9.90;;;;;;;20.03;95.28;98384.87;1641151;86;25792;-60
2022/08/23 07:31:53;;;;;;;12.78;8.38;;;;;;;20.06;94.91;98384.70;1649004;86;27448;-60
2022/08/23 07:34:21;;;;;;;12.68;9.23;;;;;;;20.05;94.34;98388.67;1647004;86;25701;-60
2022/08/23 07:36:50;;;;;;;11.83;8.95;;;;;;;20.07;94.59;98393.27;1649292;86;25730;-60
2022/08/23 07:39:17;;;;;;;14.47;9.25;;;;;;;20.05;94.20;98394.23;1649902;86;25745;-60
2022/08/23 07:41:45;;;;;;;13.32;9.43;;;;;;;20.07;94.29;98397.44;1649033;86;25789;-60
2022/08/23 07:44:13;;;;;;;13.90;8.98;;;;;;;20.10;93.70;98395.86;1656146;86;27481;-60
2022/08/23 07:46:43;;;;;;;13.13;9.55;;;;;;;20.10;94.36;98396.67;1649764;86;25710;-60
2022/08/23 07:49:11;;;;;;;13.60;9.65;;;;;;;20.20;94.40;98400.70;1697141;84;25589;-60
2022/08/23 07:51:41;;;;;;;14.33;9.15;;;;;;;20.21;93.75;98402.32;1709307;83;26441;-60
2022/08/23 07:54:10;;;;;;;12.60;8.83;;;;;;;20.19;93.68;98401.90;1709312;84;25444;-60
2022/08/23 07:56:37;;;;;;;13.50;9.63;;;;;;;20.23;93.80;98404.72;1705911;83;27478;-60
2022/08/23 07:59:06;;;;;;;16.45;9.98;;;;;;;20.31;94.07;98406.36;1705108;84;25772;-60
2022/08/23 08:01:34;;;;;;;13.85;9.70;;;;;;;20.40;93.67;98408.22;1708292;83;25706;-60
2022/08/23 08:04:03;;;;;;;13.40;9.58;;;;;;;20.52;93.64;98411.27;1709291;83;25899;-60
2022/08/23 08:06:46;;;;;;;15.23;9.88;;;;;;;20.53;92.54;98409.30;1709280;83;25769;-60
2022/08/23 08:09:14;;;;;;;14.15;9.68;;;;;;;20.57;92.86;98411.50;1709277;84;27591;-60
2022/08/23 08:11:45;;;;;;;13.83;9.55;;;;;;;20.62;92.80;98415.91;1709720;83;25714;-60
2022/08/23 08:14:14;;;;;;;13.38;9.58;;;;;;;20.68;92.92;98412.97;1709635;83;25622;-59
2022/08/23 08:16:44;;;;;;;14.03;9.95;;;;;;;20.67;90.69;98416.95;1709480;83;25665;-60
2022/08/23 08:19:15;;;;;;;13.75;9.83;;;;;;;20.66;91.67;98419.50;1709319;84;25594;-59
2022/08/23 08:21:44;;;;;;;15.05;10.65;;;;;;;20.74;92.67;98416.17;1709808;83;27416;-60
2022/08/23 08:24:15;;;;;;;16.52;10.78;;;;;;;20.88;92.92;98419.05;1709698;83;25508;-60
2022/08/23 08:26:43;;;;;;;16.70;10.08;;;;;;;21.00;91.47;98425.48;1709609;83;25723;-59
2022/08/23 08:29:11;;;;;;;17.75;10.98;;;;;;;21.06;92.17;98425.32;1709469;83;26402;-60
2022/08/23 08:31:41;;;;;;;16.50;10.40;;;;;;;21.16;91.42;98425.18;1709717;83;25503;-60
2022/08/23 08:34:10;;;;;;;13.90;10.20;;;;;;;21.24;91.48;98437.94;1709847;83;27425;-60
2022/08/23 08:36:48;;;;;;;16.70;10.83;;;;;;;21.34;91.49;98433.61;1709635;83;26081;-60
2022/08/23 08:39:23;;;;;;;14.03;10.35;;;;;;;21.37;89.58;98434.80;1708259;84;25449;-61
2022/08/23 08:42:10;;;;;;;15.20;10.70;;;;;;;21.40;90.73;98436.80;1709518;83;27335;-61
2022/08/23 08:44:50;;;;;;;12.85;9.78;;;;;;;21.46;90.13;98437.21;1709505;83;25488;-60
2022/08/23 08:47:42;;;;;;;13.13;9.65;;;;;;;21.48;89.81;98442.62;1709009;83;27634;-60
2022/08/23 08:50:40;;;;;;;15.28;10.00;;;;;;;21.46;89.98;98447.78;1709483;83;25500;-61
2022/08/23 08:53:23;;;;;;;13.55;9.70;;;;;;;21.50;90.30;98445.79;1709531;84;25468;-61
2022/08/23 08:55:55;;;;;;;15.78;10.78;;;;;;;21.39;88.59;98446.37;1707711;84;25751;-61
2022/08/23 08:58:33;;;;;;;13.95;10.03;;;;;;;21.31;89.74;98448.33;1709075;83;25646;-61
2022/08/23 09:00:59;;;;;;;12.13;9.13;;;;;;;21.42;89.92;98456.11;1709432;84;27478;-60
2022/08/23 09:03:31;;;;;;;13.75;9.83;;;;;;;21.52;88.93;98460.73;1709297;84;25643;-60
2022/08/23 09:06:06;;;;;;;14.60;9.98;;;;;;;21.47;89.05;98455.55;1709724;83;25762;-60
2022/08/23 09:08:44;;;;;;;15.30;11.00;;;;;;;21.41;88.25;98455.11;1703001;84;25603;-60
2022/08/23 09:11:44;;;;;;;15.60;10.10;;;;;;;21.39;89.31;98465.27;1709577;83;25627;-60
2022/08/23 09:14:47;;;;;;;14.83;10.65;;;;;;;21.43;89.10;98466.68;1709748;83;27364;-60
2022/08/23 09:17:21;;;;;;;15.40;10.08;;;;;;;21.51;88.86;98464.13;1647033;87;25722;-60
2022/08/23 09:19:52;;;;;;;13.68;9.28;;;;;;;21.62;89.15;98479.48;1646429;87;25822;-60
2022/08/23 09:22:24;;;;;;;;;;;;;;;21.72;89.36;98475.14;1649361;87;25836;-60
2022/08/23 09:24:51;;;;;;;14.60;10.20;;;;;;;21.84;88.66;98480.19;1597208;89;25495;-60
2022/08/23 09:27:18;;;;;;;16.67;10.50;;;;;;;21.90;88.55;98480.78;1656120;86;27369;-60
2022/08/23 09:29:55;;;;;;;15.05;10.23;;;;;;;21.92;87.43;98485.97;1656025;86;25529;-60
2022/08/23 09:32:35;;;;;;;14.90;9.58;;;;;;;21.91;86.41;98484.38;1656645;86;25629;-62
2022/08/23 09:35:19;;;;;;;15.87;10.57;;;;;;;21.96;87.66;98488.16;1656787;86;26038;-62
2022/08/23 09:38:02;;;;;;;16.50;11.15;;;;;;;22.06;88.38;98484.61;1656161;86;25424;-62
2022/08/23 09:40:49;;;;;;;17.07;10.93;;;;;;;22.14;86.44;98485.39;1656292;86;27551;-63
2022/08/23 09:43:25;;;;;;;16.00;11.50;;;;;;;22.26;87.47;98482.03;1656021;86;25642;-63
2022/08/23 09:45:57;;;;;;;18.40;11.95;;;;;;;22.37;87.24;98492.62;1656041;86;25484;-62
2022/08/23 09:48:43;;;;;;;17.30;11.68;;;;;;;22.38;86.40;98483.04;1656432;86;25795;-63
2022/08/23 09:51:24;;;;;;;18.15;11.50;;;;;;;22.42;86.69;98483.83;1679202;83;25724;-63
2022/08/23 09:54:08;;;;;;;20.02;12.20;;;;;;;22.41;85.29;98479.45;1716819;83;27403;-60
2022/08/23 09:56:46;;;;;;;19.02;12.10;;;;;;;22.54;86.61;98479.83;1703699;83;25780;-60
2022/08/23 09:59:32;;;;;;;20.60;12.28;;;;;;;22.61;85.59;98474.88;1716729;83;25484;-60
2022/08/23 10:02:01;;;;;;;23.52;14.45;;;;;;;22.69;85.66;98483.44;1716667;83;26550;-60
2022/08/23 10:04:43;;;;;;;23.47;14.10;;;;;;;22.73;86.01;98489.02;1716999;83;25633;-61
2022/08/23 10:07:40;;;;;;;23.22;14.40;;;;;;;22.73;84.65;98491.02;1710502;83;27521;-60
2022/08/23 10:10:24;;;;;;;23.62;14.55;;;;;;;22.73;83.58;98486.23;1716903;83;25627;-62
2022/08/23 10:12:55;;;;;;;25.75;15.80;;;;;;;22.75;83.79;98491.42;1716866;83;25468;-62
2022/08/23 10:15:27;;;;;;;28.80;16.48;;;;;;;22.89;85.00;98490.02;1716721;83;25686;-63
2022/08/23 10:18:15;;;;;;;26.27;15.83;;;;;;;23.01;83.68;98497.77;1716389;83;25491;-63
2022/08/23 10:21:08;;;;;;;22.90;15.40;;;;;;;22.94;82.93;98494.37;1716247;83;27443;-63
2022/08/23 10:23:49;;;;;;;21.62;14.58;;;;;;;22.93;83.50;98497.78;1716677;83;25397;-63
2022/08/23 10:26:23;;;;;;;20.68;13.62;;;;;;;23.01;83.51;98496.36;1690776;84;25816;-63
2022/08/23 10:32:30;;;;;;;19.82;12.88;;;;;;;23.15;83.37;98499.14;1690741;84;25533;-63
2022/08/23 10:35:14;;;;;;;19.12;12.25;;;;;;;23.15;83.25;98496.34;1690340;84;27523;-63
2022/08/23 10:38:04;;;;;;;18.82;10.75;;;;;;;23.20;82.81;98503.48;1692268;84;25979;-63
2022/08/23 10:40:54;;;;;;;13.72;10.43;;;;;;;23.29;82.61;98503.86;1689631;84;25836;-64
2022/08/23 10:43:58;;;;;;;15.18;9.23;;;;;;;23.36;81.94;98494.66;1693536;84;25523;-64
2022/08/23 10:46:29;;;;;;;11.60;8.53;;;;;;;23.34;81.49;98504.67;1688678;84;25541;-63
2022/08/23 10:49:01;;;;;;;11.63;8.40;;;;;;;23.31;81.09;98506.25;1692925;84;27431;-64
2022/08/23 10:51:38;;;;;;;13.53;8.93;;;;;;;23.23;81.00;98508.27;1683249;84;25743;-64
2022/08/23 10:54:11;;;;;;;14.30;9.50;;;;;;;23.22;81.14;98515.08;1680771;84;25677;-62
2022/08/23 10:56:38;;;;;;;13.18;9.38;;;;;;;23.17;81.78;98513.48;1692529;84;25780;-61
2022/08/23 10:59:16;;;;;;;15.10;10.58;;;;;;;23.20;81.50;98513.27;1692493;84;25656;-62
2022/08/23 11:02:26;;;;;;;13.78;9.93;;;;;;;23.17;81.56;98516.28;1692080;84;27375;-62
2022/08/23 11:05:07;;;;;;;14.78;10.43;;;;;;;23.16;81.50;98516.69;1661126;86;33640;-61
2022/08/23 11:07:39;;;;;;;16.65;10.45;;;;;;;23.04;81.24;98520.70;1662263;85;25835;-61
2022/08/23 11:10:17;;;;;;;17.92;11.12;;;;;;;22.94;81.21;98517.53;1660748;86;25734;-61
2022/08/23 11:13:00;;;;;;;16.50;11.20;;;;;;;22.89;80.59;98513.77;1660942;86;25764;-62
2022/08/23 11:15:38;;;;;;;17.92;12.53;;;;;;;22.87;81.83;98516.15;1660549;86;27529;-61
2022/08/23 11:18:08;;;;;;;20.25;12.90;;;;;;;23.01;81.84;98516.73;1660346;86;25627;-61
2022/08/23 11:20:55;;;;;;;19.60;13.15;;;;;;;23.09;80.75;98523.11;1660341;86;25911;-62
2022/08/23 11:23:58;;;;;;;19.40;11.90;;;;;;;23.23;81.27;98524.27;1660853;86;26718;-62
2022/08/23 11:26:40;;;;;;;19.52;12.05;;;;;;;23.27;80.34;98530.05;1660377;86;25714;-62
2022/08/23 11:29:14;;;;;;;15.70;11.70;;;;;;;23.22;80.26;98526.84;1660520;86;28268;-63
2022/08/23 11:32:00;;;;;;;17.48;11.28;;;;;;;23.16;79.94;98528.67;1659618;86;26030;-62
2022/08/23 11:35:08;;;;;;;17.52;11.78;;;;;;;23.21;79.44;98527.46;1660952;86;25553;-63
2022/08/23 11:38:01;;;;;;;19.85;12.07;;;;;;;23.36;80.85;98524.61;1660911;86;25638;-62
2022/08/23 11:40:57;;;;;;;16.77;11.45;;;;;;;23.49;79.37;98526.41;1698737;83;25702;-62
2022/08/23 11:43:37;;;;;;;19.57;12.28;;;;;;;23.48;79.90;98527.59;1695205;83;27719;-62
2022/08/23 11:46:33;;;;;;;;;;;;;;;23.45;77.80;98529.20;1691706;83;25515;-62
2022/08/23 11:49:46;;;;;;;20.65;12.25;;;;;;;23.46;79.13;98531.41;1694505;83;25679;-62
2022/08/23 11:52:32;;;;;;;18.67;12.25;;;;;;;23.43;79.32;98528.84;1689330;83;25445;-62
2022/08/23 11:55:30;;;;;;;19.75;12.33;;;;;;;23.40;79.44;98533.22;1642827;86;25618;-62
2022/08/23 11:58:35;;;;;;;18.95;12.43;;;;;;;23.54;79.93;98536.57;1640710;86;28389;-62
2022/08/23 12:01:13;;;;;;;17.32;12.37;;;;;;;23.72;79.73;98532.11;1662925;86;25548;-62
2022/08/23 12:04:00;;;;;;;17.07;11.08;;;;;;;23.76;79.40;98533.69;1667038;86;26527;-62
2022/08/23 12:06:40;;;;;;;16.45;10.43;;;;;;;23.96;78.36;98535.17;1661122;86;25771;-62
2022/08/23 12:09:28;;;;;;;16.17;10.48;;;;;;;24.12;78.23;98536.88;1660060;86;25773;-62